sensor_id;sensor_type;location;lat;lon;timestamp;pressure;altitude;pressure_sealevel;temperature;humidity
54329;BME280;40710;51.120;13.136;2023-03-03T00:00:49;99975.31;;;4.69;63.15
54329;BME280;40710;51.120;13.136;2023-03-03T00:03:17;99971.91;;;4.66;62.44
54329;BME280;40710;51.120;13.136;2023-03-03T00:05:42;99976.75;;;4.38;63.59
54329;BME280;40710;51.120;13.136;2023-03-03T00:08:07;99975.09;;;4.35;62.67
54329;BME280;40710;51.120;13.136;2023-03-03T00:10:33;99982.53;;;4.55;63.45
54329;BME280;40710;51.120;13.136;2023-03-03T00:12:57;99979.06;;;4.54;62.46
54329;BME280;40710;51.120;13.136;2023-03-03T00:15:24;99985.78;;;4.18;63.24
54329;BME280;40710;51.120;13.136;2023-03-03T00:17:49;99987.66;;;4.60;63.11
54329;BME280;40710;51.120;13.136;2023-03-03T00:22:52;99976.84;;;4.33;63.75
54329;BME280;40710;51.120;13.136;2023-03-03T00:25:29;99983.59;;;3.92;65.02
54329;BME280;40710;51.120;13.136;2023-03-03T00:27:55;99986.66;;;4.17;65.08
54329;BME280;40710;51.120;13.136;2023-03-03T00:30:24;99993.19;;;3.90;65.46
54329;BME280;40710;51.120;13.136;2023-03-03T00:32:49;100000.34;;;3.75;66.33
54329;BME280;40710;51.120;13.136;2023-03-03T00:35:24;100012.44;;;3.76;66.01
54329;BME280;40710;51.120;13.136;2023-03-03T00:37:57;99998.13;;;4.07;65.75
54329;BME280;40710;51.120;13.136;2023-03-03T00:40:26;99999.63;;;4.19;65.11
54329;BME280;40710;51.120;13.136;2023-03-03T00:42:55;99988.25;;;4.26;65.11
54329;BME280;40710;51.120;13.136;2023-03-03T00:47:54;99999.28;;;3.87;65.91
54329;BME280;40710;51.120;13.136;2023-03-03T00:50:33;100001.25;;;4.26;65.37
54329;BME280;40710;51.120;13.136;2023-03-03T00:53:02;99997.03;;;4.19;64.46
54329;BME280;40710;51.120;13.136;2023-03-03T00:55:28;99988.16;;;4.32;64.97
54329;BME280;40710;51.120;13.136;2023-03-03T00:57:53;99991.16;;;4.09;65.68
54329;BME280;40710;51.120;13.136;2023-03-03T01:00:18;99986.09;;;4.51;64.82
54329;BME280;40710;51.120;13.136;2023-03-03T01:02:42;99985.81;;;4.16;65.54
54329;BME280;40710;51.120;13.136;2023-03-03T01:05:12;99987.34;;;4.28;65.64
54329;BME280;40710;51.120;13.136;2023-03-03T01:07:37;99998.34;;;4.44;66.02
54329;BME280;40710;51.120;13.136;2023-03-03T01:10:01;99996.13;;;4.23;66.07
54329;BME280;40710;51.120;13.136;2023-03-03T01:12:26;99990.78;;;4.30;65.96
54329;BME280;40710;51.120;13.136;2023-03-03T01:14:51;99988.22;;;4.27;65.91
54329;BME280;40710;51.120;13.136;2023-03-03T01:17:18;99986.75;;;4.12;64.83
54329;BME280;40710;51.120;13.136;2023-03-03T01:19:42;99984.66;;;4.33;64.88
54329;BME280;40710;51.120;13.136;2023-03-03T01:22:07;99986.13;;;4.48;64.66
54329;BME280;40710;51.120;13.136;2023-03-03T01:24:31;99989.56;;;4.50;64.82
54329;BME280;40710;51.120;13.136;2023-03-03T01:26:56;99988.38;;;4.18;65.31
54329;BME280;40710;51.120;13.136;2023-03-03T01:29:20;99988.16;;;4.30;65.48
54329;BME280;40710;51.120;13.136;2023-03-03T01:31:45;99992.00;;;4.08;65.84
54329;BME280;40710;51.120;13.136;2023-03-03T01:34:09;99991.97;;;4.11;66.25
54329;BME280;40710;51.120;13.136;2023-03-03T01:36:34;99993.50;;;3.68;66.12
54329;BME280;40710;51.120;13.136;2023-03-03T01:39:00;99999.66;;;3.61;68.08
54329;BME280;40710;51.120;13.136;2023-03-03T01:41:29;99993.69;;;3.56;67.12
54329;BME280;40710;51.120;13.136;2023-03-03T01:43:56;99984.16;;;4.12;66.32
54329;BME280;40710;51.120;13.136;2023-03-03T01:48:50;99976.53;;;4.02;66.15
54329;BME280;40710;51.120;13.136;2023-03-03T01:51:25;99972.25;;;3.97;66.05
54329;BME280;40710;51.120;13.136;2023-03-03T01:54:01;99979.53;;;3.75;66.42
54329;BME280;40710;51.120;13.136;2023-03-03T01:56:27;99974.97;;;3.90;66.38
54329;BME280;40710;51.120;13.136;2023-03-03T01:59:00;99965.97;;;4.09;65.24
54329;BME280;40710;51.120;13.136;2023-03-03T02:01:30;99963.97;;;3.72;65.79
54329;BME280;40710;51.120;13.136;2023-03-03T02:03:56;99960.47;;;3.73;66.46
54329;BME280;40710;51.120;13.136;2023-03-03T02:06:25;99964.69;;;3.82;66.60
54329;BME280;40710;51.120;13.136;2023-03-03T02:09:09;99966.59;;;3.71;67.03
54329;BME280;40710;51.120;13.136;2023-03-03T02:11:39;99973.56;;;3.69;66.94
54329;BME280;40710;51.120;13.136;2023-03-03T02:14:12;99962.41;;;4.15;65.02
54329;BME280;40710;51.120;13.136;2023-03-03T02:16:38;99981.53;;;3.58;66.70
54329;BME280;40710;51.120;13.136;2023-03-03T02:19:07;99975.56;;;3.51;67.09
54329;BME280;40710;51.120;13.136;2023-03-03T02:21:36;99976.31;;;3.59;66.86
54329;BME280;40710;51.120;13.136;2023-03-03T02:24:15;99976.97;;;3.72;66.46
54329;BME280;40710;51.120;13.136;2023-03-03T02:26:44;99987.66;;;3.52;66.62
54329;BME280;40710;51.120;13.136;2023-03-03T02:29:09;99973.53;;;3.72;66.27
54329;BME280;40710;51.120;13.136;2023-03-03T02:31:34;99972.66;;;3.71;66.58
54329;BME280;40710;51.120;13.136;2023-03-03T02:34:00;99970.75;;;3.84;65.99
54329;BME280;40710;51.120;13.136;2023-03-03T02:36:28;99978.34;;;3.39;66.93
54329;BME280;40710;51.120;13.136;2023-03-03T02:39:23;99963.63;;;3.94;65.81
54329;BME280;40710;51.120;13.136;2023-03-03T02:42:05;99977.63;;;3.87;66.46
54329;BME280;40710;51.120;13.136;2023-03-03T02:44:32;99980.69;;;3.56;66.83
54329;BME280;40710;51.120;13.136;2023-03-03T02:46:58;99983.94;;;3.70;66.46
54329;BME280;40710;51.120;13.136;2023-03-03T02:49:26;99960.22;;;3.90;66.30
54329;BME280;40710;51.120;13.136;2023-03-03T02:51:51;99966.00;;;3.52;66.80
54329;BME280;40710;51.120;13.136;2023-03-03T02:54:18;99974.25;;;3.80;66.58
54329;BME280;40710;51.120;13.136;2023-03-03T02:56:44;99975.81;;;3.90;66.20
54329;BME280;40710;51.120;13.136;2023-03-03T02:59:09;99972.75;;;3.67;66.35
54329;BME280;40710;51.120;13.136;2023-03-03T03:01:34;99981.34;;;3.72;66.93
54329;BME280;40710;51.120;13.136;2023-03-03T03:04:17;99980.75;;;4.09;65.80
54329;BME280;40710;51.120;13.136;2023-03-03T03:06:42;99978.66;;;3.75;65.89
54329;BME280;40710;51.120;13.136;2023-03-03T03:09:08;99974.06;;;3.91;65.63
54329;BME280;40710;51.120;13.136;2023-03-03T03:11:34;99970.53;;;3.96;65.97
54329;BME280;40710;51.120;13.136;2023-03-03T03:13:59;99967.91;;;3.98;65.55
54329;BME280;40710;51.120;13.136;2023-03-03T03:16:23;99977.63;;;3.85;66.55
54329;BME280;40710;51.120;13.136;2023-03-03T03:18:48;99979.81;;;3.57;66.66
54329;BME280;40710;51.120;13.136;2023-03-03T03:21:14;99982.13;;;3.77;66.09
54329;BME280;40710;51.120;13.136;2023-03-03T03:23:39;99980.16;;;3.32;66.79
54329;BME280;40710;51.120;13.136;2023-03-03T03:26:04;99984.13;;;3.58;66.18
54329;BME280;40710;51.120;13.136;2023-03-03T03:28:29;99973.63;;;3.66;66.41
54329;BME280;40710;51.120;13.136;2023-03-03T03:30:54;99970.88;;;3.73;66.50
54329;BME280;40710;51.120;13.136;2023-03-03T03:33:18;99969.66;;;3.96;65.62
54329;BME280;40710;51.120;13.136;2023-03-03T03:35:43;99962.31;;;4.21;64.35
54329;BME280;40710;51.120;13.136;2023-03-03T03:38:10;99954.13;;;3.94;65.51
54329;BME280;40710;51.120;13.136;2023-03-03T03:40:35;99958.59;;;3.26;66.82
54329;BME280;40710;51.120;13.136;2023-03-03T03:43:00;99959.06;;;3.54;66.83
54329;BME280;40710;51.120;13.136;2023-03-03T03:45:24;99951.72;;;3.81;65.78
54329;BME280;40710;51.120;13.136;2023-03-03T03:47:49;99955.94;;;3.89;64.93
54329;BME280;40710;51.120;13.136;2023-03-03T03:50:13;99960.81;;;4.08;64.71
54329;BME280;40710;51.120;13.136;2023-03-03T03:52:38;99968.78;;;3.98;64.94
54329;BME280;40710;51.120;13.136;2023-03-03T03:55:03;99970.66;;;3.89;64.93
54329;BME280;40710;51.120;13.136;2023-03-03T03:57:28;99986.66;;;3.61;67.46
54329;BME280;40710;51.120;13.136;2023-03-03T03:59:52;99996.25;;;3.57;66.19
54329;BME280;40710;51.120;13.136;2023-03-03T04:02:17;99993.94;;;3.39;66.44
54329;BME280;40710;51.120;13.136;2023-03-03T04:04:41;99992.44;;;3.80;65.23
54329;BME280;40710;51.120;13.136;2023-03-03T04:07:06;99994.19;;;3.79;65.28
54329;BME280;40710;51.120;13.136;2023-03-03T04:09:30;100003.75;;;3.79;65.08
54329;BME280;40710;51.120;13.136;2023-03-03T04:11:55;100004.22;;;3.45;65.88
54329;BME280;40710;51.120;13.136;2023-03-03T04:14:19;100009.81;;;3.78;65.35
54329;BME280;40710;51.120;13.136;2023-03-03T04:16:44;99997.88;;;4.21;64.36
54329;BME280;40710;51.120;13.136;2023-03-03T04:19:08;99988.94;;;4.35;64.12
54329;BME280;40710;51.120;13.136;2023-03-03T04:21:33;99989.03;;;4.31;63.30
54329;BME280;40710;51.120;13.136;2023-03-03T04:23:58;100003.75;;;3.79;65.19
54329;BME280;40710;51.120;13.136;2023-03-03T04:26:22;99999.81;;;4.09;64.61
54329;BME280;40710;51.120;13.136;2023-03-03T04:28:47;100006.06;;;3.97;65.86
54329;BME280;40710;51.120;13.136;2023-03-03T04:31:11;100003.06;;;4.21;64.49
54329;BME280;40710;51.120;13.136;2023-03-03T04:33:36;99992.69;;;4.69;62.95
54329;BME280;40710;51.120;13.136;2023-03-03T04:36:00;99998.53;;;4.33;63.14
54329;BME280;40710;51.120;13.136;2023-03-03T04:38:25;99999.63;;;4.19;63.40
54329;BME280;40710;51.120;13.136;2023-03-03T04:40:50;100005.59;;;4.27;64.13
54329;BME280;40710;51.120;13.136;2023-03-03T04:43:14;100001.97;;;3.83;64.61
54329;BME280;40710;51.120;13.136;2023-03-03T04:45:39;100008.19;;;3.71;65.67
54329;BME280;40710;51.120;13.136;2023-03-03T04:48:04;100000.81;;;4.01;64.49
54329;BME280;40710;51.120;13.136;2023-03-03T04:50:28;100005.28;;;3.91;65.39
54329;BME280;40710;51.120;13.136;2023-03-03T04:52:53;100014.16;;;3.77;65.11
54329;BME280;40710;51.120;13.136;2023-03-03T04:55:17;100011.16;;;3.46;66.01
54329;BME280;40710;51.120;13.136;2023-03-03T04:57:42;100009.28;;;3.56;65.49
54329;BME280;40710;51.120;13.136;2023-03-03T05:00:08;100010.72;;;3.77;65.72
54329;BME280;40710;51.120;13.136;2023-03-03T05:02:33;100025.59;;;2.97;67.04
54329;BME280;40710;51.120;13.136;2023-03-03T05:04:57;100018.88;;;3.51;66.71
54329;BME280;40710;51.120;13.136;2023-03-03T05:07:22;100021.56;;;4.05;65.18
54329;BME280;40710;51.120;13.136;2023-03-03T05:09:47;100029.22;;;3.52;65.22
54329;BME280;40710;51.120;13.136;2023-03-03T05:12:12;100024.41;;;3.26;66.61
54329;BME280;40710;51.120;13.136;2023-03-03T05:14:36;100028.31;;;3.58;65.86
54329;BME280;40710;51.120;13.136;2023-03-03T05:17:02;100032.59;;;3.60;66.37
54329;BME280;40710;51.120;13.136;2023-03-03T05:19:27;100022.16;;;2.97;67.33
54329;BME280;40710;51.120;13.136;2023-03-03T05:21:52;100018.13;;;3.43;66.25
54329;BME280;40710;51.120;13.136;2023-03-03T05:24:16;100014.22;;;3.73;65.24
54329;BME280;40710;51.120;13.136;2023-03-03T05:26:41;100022.66;;;3.27;66.54
54329;BME280;40710;51.120;13.136;2023-03-03T05:29:06;100021.31;;;3.63;65.56
54329;BME280;40710;51.120;13.136;2023-03-03T05:31:31;100019.75;;;3.50;65.83
54329;BME280;40710;51.120;13.136;2023-03-03T05:33:55;100024.19;;;3.40;66.89
54329;BME280;40710;51.120;13.136;2023-03-03T05:36:20;100018.56;;;3.74;65.73
54329;BME280;40710;51.120;13.136;2023-03-03T05:38:44;100004.63;;;3.76;64.78
54329;BME280;40710;51.120;13.136;2023-03-03T05:41:09;100009.16;;;3.64;64.46
54329;BME280;40710;51.120;13.136;2023-03-03T05:43:34;100021.97;;;3.77;65.65
54329;BME280;40710;51.120;13.136;2023-03-03T05:45:58;100025.72;;;3.56;65.04
54329;BME280;40710;51.120;13.136;2023-03-03T05:48:24;100026.63;;;3.52;65.34
54329;BME280;40710;51.120;13.136;2023-03-03T05:50:48;100027.44;;;3.57;65.58
54329;BME280;40710;51.120;13.136;2023-03-03T05:53:13;100026.53;;;3.62;65.30
54329;BME280;40710;51.120;13.136;2023-03-03T05:55:37;100021.94;;;3.79;65.05
54329;BME280;40710;51.120;13.136;2023-03-03T05:58:02;100015.38;;;4.11;64.15
54329;BME280;40710;51.120;13.136;2023-03-03T06:00:27;100023.13;;;3.58;65.44
54329;BME280;40710;51.120;13.136;2023-03-03T06:02:51;100025.47;;;3.07;66.62
54329;BME280;40710;51.120;13.136;2023-03-03T06:05:16;100032.41;;;3.74;65.61
54329;BME280;40710;51.120;13.136;2023-03-03T06:07:40;100035.41;;;3.45;65.88
54329;BME280;40710;51.120;13.136;2023-03-03T06:10:05;100034.44;;;3.52;65.53
54329;BME280;40710;51.120;13.136;2023-03-03T06:12:30;100028.91;;;3.77;66.54
54329;BME280;40710;51.120;13.136;2023-03-03T06:14:54;100019.63;;;3.57;65.96
54329;BME280;40710;51.120;13.136;2023-03-03T06:17:19;100025.44;;;3.10;66.43
54329;BME280;40710;51.120;13.136;2023-03-03T06:19:44;100027.56;;;3.48;66.03
54329;BME280;40710;51.120;13.136;2023-03-03T06:22:08;100021.44;;;3.52;65.53
54329;BME280;40710;51.120;13.136;2023-03-03T06:24:33;100027.84;;;3.27;67.49
54329;BME280;40710;51.120;13.136;2023-03-03T06:26:58;100046.41;;;2.94;68.36
54329;BME280;40710;51.120;13.136;2023-03-03T06:29:23;100038.06;;;3.40;66.17
54329;BME280;40710;51.120;13.136;2023-03-03T06:31:48;100045.34;;;3.12;66.17
54329;BME280;40710;51.120;13.136;2023-03-03T06:34:13;100062.31;;;3.41;67.29
54329;BME280;40710;51.120;13.136;2023-03-03T06:36:37;100071.53;;;2.91;67.61
54329;BME280;40710;51.120;13.136;2023-03-03T06:39:02;100065.16;;;3.88;66.18
54329;BME280;40710;51.120;13.136;2023-03-03T06:41:27;100068.00;;;3.68;65.78
54329;BME280;40710;51.120;13.136;2023-03-03T06:43:51;100072.25;;;3.73;65.48
54329;BME280;40710;51.120;13.136;2023-03-03T06:46:16;100067.94;;;3.74;65.40
54329;BME280;40710;51.120;13.136;2023-03-03T06:48:41;100071.50;;;3.67;66.51
54329;BME280;40710;51.120;13.136;2023-03-03T06:53:45;100072.69;;;3.41;67.51
54329;BME280;40710;51.120;13.136;2023-03-03T06:56:10;100059.53;;;3.55;66.38
54329;BME280;40710;51.120;13.136;2023-03-03T06:58:35;100043.56;;;3.83;64.70
54329;BME280;40710;51.120;13.136;2023-03-03T07:01:00;100047.41;;;3.52;65.96
54329;BME280;40710;51.120;13.136;2023-03-03T07:03:27;100047.22;;;4.25;64.64
54329;BME280;40710;51.120;13.136;2023-03-03T07:05:56;100046.69;;;4.05;64.80
54329;BME280;40710;51.120;13.136;2023-03-03T07:08:22;100055.31;;;3.48;65.80
54329;BME280;40710;51.120;13.136;2023-03-03T07:10:49;100048.84;;;3.75;65.01
54329;BME280;40710;51.120;13.136;2023-03-03T07:15:48;100067.66;;;3.94;64.89
54329;BME280;40710;51.120;13.136;2023-03-03T07:18:32;100071.38;;;3.77;65.17
54329;BME280;40710;51.120;13.136;2023-03-03T07:20:58;100063.22;;;4.01;64.48
54329;BME280;40710;51.120;13.136;2023-03-03T07:23:39;100065.25;;;3.80;64.81
54329;BME280;40710;51.120;13.136;2023-03-03T07:26:08;100077.34;;;3.83;66.10
54329;BME280;40710;51.120;13.136;2023-03-03T07:28:35;100076.41;;;3.88;65.66
54329;BME280;40710;51.120;13.136;2023-03-03T07:31:20;100092.94;;;3.84;65.54
54329;BME280;40710;51.120;13.136;2023-03-03T07:33:48;100093.13;;;4.29;64.49
54329;BME280;40710;51.120;13.136;2023-03-03T07:36:39;100103.25;;;3.89;65.65
54329;BME280;40710;51.120;13.136;2023-03-03T07:39:33;100098.66;;;4.08;64.79
54329;BME280;40710;51.120;13.136;2023-03-03T07:42:12;100117.34;;;3.74;66.62
54329;BME280;40710;51.120;13.136;2023-03-03T07:44:38;100110.22;;;3.87;65.15
54329;BME280;40710;51.120;13.136;2023-03-03T07:49:42;100108.84;;;4.23;64.06
54329;BME280;40710;51.120;13.136;2023-03-03T07:52:40;100124.34;;;3.69;65.02
54329;BME280;40710;51.120;13.136;2023-03-03T07:55:38;100131.97;;;3.83;66.62
54329;BME280;40710;51.120;13.136;2023-03-03T08:03:07;100114.41;;;3.98;65.08
54329;BME280;40710;51.120;13.136;2023-03-03T08:05:38;100122.84;;;3.49;66.54
54329;BME280;40710;51.120;13.136;2023-03-03T08:10:43;100111.66;;;4.08;66.32
54329;BME280;40710;51.120;13.136;2023-03-03T08:13:22;100109.34;;;3.88;65.72
54329;BME280;40710;51.120;13.136;2023-03-03T08:18:43;100099.03;;;4.41;64.09
54329;BME280;40710;51.120;13.136;2023-03-03T08:23:42;100096.97;;;4.61;62.92
54329;BME280;40710;51.120;13.136;2023-03-03T08:26:07;100086.94;;;4.88;62.15
54329;BME280;40710;51.120;13.136;2023-03-03T08:28:33;100100.25;;;4.18;64.41
54329;BME280;40710;51.120;13.136;2023-03-03T08:30:57;100105.41;;;4.21;65.03
54329;BME280;40710;51.120;13.136;2023-03-03T08:33:22;100119.09;;;3.72;65.79
54329;BME280;40710;51.120;13.136;2023-03-03T08:35:47;100100.59;;;4.52;63.49
54329;BME280;40710;51.120;13.136;2023-03-03T08:38:13;100102.53;;;4.38;63.58
54329;BME280;40710;51.120;13.136;2023-03-03T08:40:38;100099.78;;;4.47;63.27
54329;BME280;40710;51.120;13.136;2023-03-03T08:43:04;100095.72;;;4.29;64.52
54329;BME280;40710;51.120;13.136;2023-03-03T08:45:28;100101.31;;;4.03;65.08
54329;BME280;40710;51.120;13.136;2023-03-03T08:47:54;100099.44;;;4.14;64.36
54329;BME280;40710;51.120;13.136;2023-03-03T08:50:19;100102.78;;;4.77;62.93
54329;BME280;40710;51.120;13.136;2023-03-03T08:52:43;100095.66;;;4.85;62.03
54329;BME280;40710;51.120;13.136;2023-03-03T08:55:08;100102.47;;;4.43;62.16
54329;BME280;40710;51.120;13.136;2023-03-03T08:57:33;100116.25;;;3.90;64.02
54329;BME280;40710;51.120;13.136;2023-03-03T08:59:57;100109.50;;;4.36;63.77
54329;BME280;40710;51.120;13.136;2023-03-03T09:02:22;100099.13;;;4.87;61.29
54329;BME280;40710;51.120;13.136;2023-03-03T09:04:46;100117.59;;;4.18;62.87
54329;BME280;40710;51.120;13.136;2023-03-03T09:07:11;100107.44;;;4.57;61.58
54329;BME280;40710;51.120;13.136;2023-03-03T09:09:35;100113.41;;;4.09;61.50
54329;BME280;40710;51.120;13.136;2023-03-03T09:12:18;100112.13;;;4.87;61.02
54329;BME280;40710;51.120;13.136;2023-03-03T09:14:46;100114.97;;;4.19;61.73
54329;BME280;40710;51.120;13.136;2023-03-03T09:17:23;100123.88;;;4.01;62.83
54329;BME280;40710;51.120;13.136;2023-03-03T09:19:49;100135.22;;;3.97;63.51
54329;BME280;40710;51.120;13.136;2023-03-03T09:22:21;100125.13;;;4.34;62.21
54329;BME280;40710;51.120;13.136;2023-03-03T09:24:47;100140.19;;;4.14;63.50
54329;BME280;40710;51.120;13.136;2023-03-03T09:27:18;100134.81;;;4.26;62.95
54329;BME280;40710;51.120;13.136;2023-03-03T09:29:45;100137.09;;;4.48;61.17
54329;BME280;40710;51.120;13.136;2023-03-03T09:34:45;100152.25;;;3.51;64.29
54329;BME280;40710;51.120;13.136;2023-03-03T09:37:28;100143.44;;;4.30;62.70
54329;BME280;40710;51.120;13.136;2023-03-03T09:39:56;100149.19;;;4.50;61.70
54329;BME280;40710;51.120;13.136;2023-03-03T09:42:45;100160.03;;;3.54;63.16
54329;BME280;40710;51.120;13.136;2023-03-03T09:45:25;100162.69;;;3.48;64.08
54329;BME280;40710;51.120;13.136;2023-03-03T09:48:18;100157.19;;;3.73;63.59
54329;BME280;40710;51.120;13.136;2023-03-03T09:53:49;100161.81;;;3.49;64.11
54329;BME280;40710;51.120;13.136;2023-03-03T09:56:33;100171.19;;;2.77;65.41
54329;BME280;40710;51.120;13.136;2023-03-03T10:05:10;100161.53;;;2.92;65.07
54329;BME280;40710;51.120;13.136;2023-03-03T10:08:14;100165.09;;;2.78;66.09
54329;BME280;40710;51.120;13.136;2023-03-03T10:10:52;100170.72;;;2.15;68.03
54329;BME280;40710;51.120;13.136;2023-03-03T10:13:30;100164.34;;;3.55;65.38
54329;BME280;40710;51.120;13.136;2023-03-03T10:18:29;100172.78;;;2.91;68.18
54329;BME280;40710;51.120;13.136;2023-03-03T10:21:11;100153.63;;;3.80;64.64
54329;BME280;40710;51.120;13.136;2023-03-03T10:32:36;100158.13;;;4.87;61.05
54329;BME280;40710;51.120;13.136;2023-03-03T10:35:21;100166.25;;;4.11;62.72
54329;BME280;40710;51.120;13.136;2023-03-03T10:49:26;100151.34;;;4.21;62.17
54329;BME280;40710;51.120;13.136;2023-03-03T10:52:21;100163.78;;;4.02;63.25
54329;BME280;40710;51.120;13.136;2023-03-03T10:55:04;100153.50;;;4.51;61.46
54329;BME280;40710;51.120;13.136;2023-03-03T11:00:38;100159.06;;;4.28;61.63
54329;BME280;40710;51.120;13.136;2023-03-03T11:03:33;100161.81;;;4.19;62.82
54329;BME280;40710;51.120;13.136;2023-03-03T11:06:24;100163.81;;;3.98;63.73
54329;BME280;40710;51.120;13.136;2023-03-03T11:09:02;100152.31;;;4.72;61.01
54329;BME280;40710;51.120;13.136;2023-03-03T11:11:59;100157.47;;;4.18;62.35
54329;BME280;40710;51.120;13.136;2023-03-03T11:14:38;100161.06;;;4.09;62.80
54329;BME280;40710;51.120;13.136;2023-03-03T11:22:38;100147.47;;;4.49;60.53
54329;BME280;40710;51.120;13.136;2023-03-03T11:28:21;100137.16;;;4.96;59.87
54329;BME280;40710;51.120;13.136;2023-03-03T11:33:46;100138.25;;;4.83;60.57
54329;BME280;40710;51.120;13.136;2023-03-03T11:36:38;100145.53;;;4.03;62.60
54329;BME280;40710;51.120;13.136;2023-03-03T11:39:14;100139.31;;;4.15;61.19
54329;BME280;40710;51.120;13.136;2023-03-03T11:41:48;100136.94;;;5.08;60.02
54329;BME280;40710;51.120;13.136;2023-03-03T11:44:21;100138.91;;;4.94;58.85
54329;BME280;40710;51.120;13.136;2023-03-03T11:47:03;100133.16;;;4.75;60.04
54329;BME280;40710;51.120;13.136;2023-03-03T11:49:40;100125.28;;;4.80;60.91
54329;BME280;40710;51.120;13.136;2023-03-03T11:52:21;100132.31;;;4.74;60.17
54329;BME280;40710;51.120;13.136;2023-03-03T11:54:55;100127.84;;;4.28;60.19
54329;BME280;40710;51.120;13.136;2023-03-03T11:57:42;100128.72;;;4.27;62.25
54329;BME280;40710;51.120;13.136;2023-03-03T12:00:15;100122.28;;;5.01;58.91
54329;BME280;40710;51.120;13.136;2023-03-03T12:03:01;100125.97;;;4.91;60.05
54329;BME280;40710;51.120;13.136;2023-03-03T12:06:31;100130.97;;;4.50;60.60
54329;BME280;40710;51.120;13.136;2023-03-03T12:11:12;100133.63;;;3.87;63.14
54329;BME280;40710;51.120;13.136;2023-03-03T12:13:54;100126.66;;;4.49;61.73
54329;BME280;40710;51.120;13.136;2023-03-03T12:16:38;100133.81;;;4.89;61.03
54329;BME280;40710;51.120;13.136;2023-03-03T12:22:26;100128.09;;;3.45;62.88
54329;BME280;40710;51.120;13.136;2023-03-03T12:25:07;100110.41;;;4.35;60.02
54329;BME280;40710;51.120;13.136;2023-03-03T12:28:09;100100.53;;;4.54;58.72
54329;BME280;40710;51.120;13.136;2023-03-03T12:33:56;100116.69;;;3.56;61.44
54329;BME280;40710;51.120;13.136;2023-03-03T12:42:06;100092.81;;;5.44;57.97
54329;BME280;40710;51.120;13.136;2023-03-03T12:44:43;100090.34;;;5.38;58.16
54329;BME280;40710;51.120;13.136;2023-03-03T12:47:37;100094.34;;;4.07;60.10
54329;BME280;40710;51.120;13.136;2023-03-03T12:50:23;100091.41;;;4.80;59.26
54329;BME280;40710;51.120;13.136;2023-03-03T12:53:08;100091.66;;;4.11;60.33
54329;BME280;40710;51.120;13.136;2023-03-03T12:55:51;100088.09;;;3.56;59.87
54329;BME280;40710;51.120;13.136;2023-03-03T12:58:36;100083.28;;;3.91;59.22
54329;BME280;40710;51.120;13.136;2023-03-03T13:03:55;100072.25;;;4.84;57.17
54329;BME280;40710;51.120;13.136;2023-03-03T13:06:38;100079.97;;;5.35;57.34
54329;BME280;40710;51.120;13.136;2023-03-03T13:15:27;100064.75;;;5.14;56.04
54329;BME280;40710;51.120;13.136;2023-03-03T13:18:02;100073.41;;;4.16;58.09
54329;BME280;40710;51.120;13.136;2023-03-03T13:20:54;100078.38;;;4.31;59.04
54329;BME280;40710;51.120;13.136;2023-03-03T13:23:33;100082.66;;;4.84;57.90
54329;BME280;40710;51.120;13.136;2023-03-03T13:26:12;100099.31;;;3.60;60.16
54329;BME280;40710;51.120;13.136;2023-03-03T13:29:19;100084.00;;;5.05;57.69
54329;BME280;40710;51.120;13.136;2023-03-03T13:31:55;100095.03;;;4.20;59.26
54329;BME280;40710;51.120;13.136;2023-03-03T13:37:01;100077.59;;;4.76;58.22
54329;BME280;40710;51.120;13.136;2023-03-03T13:39:33;100074.44;;;4.57;57.62
54329;BME280;40710;51.120;13.136;2023-03-03T13:42:03;100072.38;;;4.78;58.73
54329;BME280;40710;51.120;13.136;2023-03-03T13:44:35;100064.88;;;4.59;58.13
54329;BME280;40710;51.120;13.136;2023-03-03T13:47:30;100066.38;;;4.21;58.80
54329;BME280;40710;51.120;13.136;2023-03-03T13:50:19;100054.13;;;5.24;56.87
54329;BME280;40710;51.120;13.136;2023-03-03T13:52:50;100052.53;;;5.17;56.58
54329;BME280;40710;51.120;13.136;2023-03-03T13:55:23;100055.50;;;5.42;56.88
54329;BME280;40710;51.120;13.136;2023-03-03T13:58:00;100045.25;;;5.33;55.54
54329;BME280;40710;51.120;13.136;2023-03-03T14:00:35;100053.34;;;4.74;57.92
54329;BME280;40710;51.120;13.136;2023-03-03T14:05:49;100052.28;;;4.33;59.41
54329;BME280;40710;51.120;13.136;2023-03-03T14:08:17;100053.41;;;5.16;57.70
54329;BME280;40710;51.120;13.136;2023-03-03T14:11:28;100046.75;;;5.43;56.51
54329;BME280;40710;51.120;13.136;2023-03-03T14:13:50;100040.13;;;5.28;57.36
54329;BME280;40710;51.120;13.136;2023-03-03T14:19:30;100049.81;;;4.77;59.18
54329;BME280;40710;51.120;13.136;2023-03-03T14:22:17;100043.22;;;5.05;58.20
54329;BME280;40710;51.120;13.136;2023-03-03T14:25:03;100040.59;;;5.05;57.30
54329;BME280;40710;51.120;13.136;2023-03-03T14:30:28;100028.50;;;5.43;58.15
54329;BME280;40710;51.120;13.136;2023-03-03T14:35:30;100038.63;;;4.22;60.94
54329;BME280;40710;51.120;13.136;2023-03-03T14:38:01;100041.78;;;3.86;62.21
54329;BME280;40710;51.120;13.136;2023-03-03T14:40:32;100037.34;;;4.47;61.42
54329;BME280;40710;51.120;13.136;2023-03-03T14:43:04;100040.38;;;4.21;61.52
54329;BME280;40710;51.120;13.136;2023-03-03T14:45:38;100021.34;;;5.13;59.60
54329;BME280;40710;51.120;13.136;2023-03-03T14:50:57;100027.31;;;4.72;59.35
54329;BME280;40710;51.120;13.136;2023-03-03T14:53:37;100015.34;;;5.09;58.20
54329;BME280;40710;51.120;13.136;2023-03-03T14:56:21;100014.91;;;4.40;59.41
54329;BME280;40710;51.120;13.136;2023-03-03T14:58:50;100024.88;;;4.12;60.32
54329;BME280;40710;51.120;13.136;2023-03-03T15:01:35;100011.41;;;4.40;60.41
54329;BME280;40710;51.120;13.136;2023-03-03T15:04:09;100021.75;;;3.91;62.21
54329;BME280;40710;51.120;13.136;2023-03-03T15:06:51;100025.59;;;4.23;61.07
54329;BME280;40710;51.120;13.136;2023-03-03T15:09:33;100030.63;;;3.78;60.93